Terminal Aerodrome Forecast
Issued by NWS

Home | Current Version | Previous Version | Text Only | Print | Product List | Glossary On
Versions: 1 2 3 4 5 6 7 8 9 10 11 12 13 14 15 16 17 18 19 20 21 22 23
591
FTUS43 KDVN 011836 AAA
TAFCID
TAF AMD
KCID 011836Z 0119/0218 35007KT P6SM SCT008 OVC020
      TEMPO 0119/0120 4SM -SHRA BR OVC012
     FM012000 01009KT P6SM BKN020
     FM020200 36005KT P6SM OVC015
     FM020600 34003KT 3SM BR OVC007
     FM021500 01006KT 5SM BR OVC010=

USA.gov is the U.S. government's official web portal to all federal, state and local government web resources and services.